sensor_id;sensor_type;location;lat;lon;timestamp;P1;durP1;ratioP1;P2;durP2;ratioP2
23360;SDS011;11852;50.082;18.554;2022-10-23T00:00:43;28.9;;;20.1;;
23360;SDS011;11852;50.082;18.554;2022-10-23T00:01:48;27.2;;;19.8;;
23360;SDS011;11852;50.082;18.554;2022-10-23T00:02:52;30.4;;;21.0;;
23360;SDS011;11852;50.082;18.554;2022-10-23T00:05:09;31.8;;;23.1;;
23360;SDS011;11852;50.082;18.554;2022-10-23T00:06:13;33.8;;;22.3;;
23360;SDS011;11852;50.082;18.554;2022-10-23T00:07:23;30.6;;;20.7;;
23360;SDS011;11852;50.082;18.554;2022-10-23T00:08:27;29.4;;;20.8;;
23360;SDS011;11852;50.082;18.554;2022-10-23T00:09:31;31.2;;;21.1;;
23360;SDS011;11852;50.082;18.554;2022-10-23T00:10:39;32.4;;;22.1;;
23360;SDS011;11852;50.082;18.554;2022-10-23T00:11:40;29.9;;;21.1;;
23360;SDS011;11852;50.082;18.554;2022-10-23T00:12:44;29.6;;;19.9;;
23360;SDS011;11852;50.082;18.554;2022-10-23T00:13:49;30.2;;;20.5;;
23360;SDS011;11852;50.082;18.554;2022-10-23T00:14:53;30.7;;;21.7;;
23360;SDS011;11852;50.082;18.554;2022-10-23T00:15:57;31.0;;;21.2;;
23360;SDS011;11852;50.082;18.554;2022-10-23T00:17:01;29.7;;;20.0;;
23360;SDS011;11852;50.082;18.554;2022-10-23T00:18:06;29.8;;;20.7;;
23360;SDS011;11852;50.082;18.554;2022-10-23T00:19:10;29.0;;;20.5;;
23360;SDS011;11852;50.082;18.554;2022-10-23T00:20:15;27.2;;;19.5;;
23360;SDS011;11852;50.082;18.554;2022-10-23T00:21:19;26.7;;;17.7;;
23360;SDS011;11852;50.082;18.554;2022-10-23T00:22:23;29.0;;;20.3;;
23360;SDS011;11852;50.082;18.554;2022-10-23T00:23:27;28.3;;;19.9;;
23360;SDS011;11852;50.082;18.554;2022-10-23T00:24:31;31.5;;;22.1;;
23360;SDS011;11852;50.082;18.554;2022-10-23T00:25:35;29.9;;;21.3;;
23360;SDS011;11852;50.082;18.554;2022-10-23T00:26:39;28.9;;;20.3;;
23360;SDS011;11852;50.082;18.554;2022-10-23T00:27:43;27.9;;;19.6;;
23360;SDS011;11852;50.082;18.554;2022-10-23T00:28:49;30.8;;;20.2;;
23360;SDS011;11852;50.082;18.554;2022-10-23T00:29:52;30.3;;;21.9;;
23360;SDS011;11852;50.082;18.554;2022-10-23T00:30:56;29.0;;;21.2;;
23360;SDS011;11852;50.082;18.554;2022-10-23T00:32:00;28.0;;;19.6;;
23360;SDS011;11852;50.082;18.554;2022-10-23T00:33:05;25.0;;;18.0;;
23360;SDS011;11852;50.082;18.554;2022-10-23T00:34:09;28.3;;;19.3;;
23360;SDS011;11852;50.082;18.554;2022-10-23T00:35:13;30.1;;;20.2;;
23360;SDS011;11852;50.082;18.554;2022-10-23T00:36:18;29.4;;;19.4;;
23360;SDS011;11852;50.082;18.554;2022-10-23T00:37:21;28.4;;;20.4;;
23360;SDS011;11852;50.082;18.554;2022-10-23T00:38:25;26.2;;;19.3;;
23360;SDS011;11852;50.082;18.554;2022-10-23T00:39:29;30.4;;;19.4;;
23360;SDS011;11852;50.082;18.554;2022-10-23T00:40:34;27.9;;;19.0;;
23360;SDS011;11852;50.082;18.554;2022-10-23T00:41:38;28.2;;;19.9;;
23360;SDS011;11852;50.082;18.554;2022-10-23T00:42:42;25.9;;;18.6;;
23360;SDS011;11852;50.082;18.554;2022-10-23T00:46:11;24.9;;;18.7;;
23360;SDS011;11852;50.082;18.554;2022-10-23T00:47:15;23.3;;;16.5;;
23360;SDS011;11852;50.082;18.554;2022-10-23T00:48:20;24.4;;;17.9;;
23360;SDS011;11852;50.082;18.554;2022-10-23T00:49:24;26.0;;;17.7;;
23360;SDS011;11852;50.082;18.554;2022-10-23T00:50:30;26.6;;;18.5;;
23360;SDS011;11852;50.082;18.554;2022-10-23T00:51:35;27.6;;;17.8;;
23360;SDS011;11852;50.082;18.554;2022-10-23T00:52:39;24.2;;;16.8;;
23360;SDS011;11852;50.082;18.554;2022-10-23T00:53:40;22.5;;;16.1;;
23360;SDS011;11852;50.082;18.554;2022-10-23T00:54:44;24.3;;;16.5;;
23360;SDS011;11852;50.082;18.554;2022-10-23T00:55:49;23.1;;;16.4;;
23360;SDS011;11852;50.082;18.554;2022-10-23T00:56:54;22.7;;;14.6;;
23360;SDS011;11852;50.082;18.554;2022-10-23T00:57:58;22.9;;;16.0;;
23360;SDS011;11852;50.082;18.554;2022-10-23T00:59:02;21.8;;;14.3;;
23360;SDS011;11852;50.082;18.554;2022-10-23T01:00:07;21.6;;;14.7;;
23360;SDS011;11852;50.082;18.554;2022-10-23T01:01:18;22.1;;;15.4;;
23360;SDS011;11852;50.082;18.554;2022-10-23T01:02:18;22.6;;;16.0;;
23360;SDS011;11852;50.082;18.554;2022-10-23T01:03:24;24.9;;;17.6;;
23360;SDS011;11852;50.082;18.554;2022-10-23T01:04:27;26.2;;;18.1;;
23360;SDS011;11852;50.082;18.554;2022-10-23T01:05:32;21.8;;;15.3;;
23360;SDS011;11852;50.082;18.554;2022-10-23T01:06:36;23.5;;;16.6;;
23360;SDS011;11852;50.082;18.554;2022-10-23T01:08:54;22.4;;;15.7;;
23360;SDS011;11852;50.082;18.554;2022-10-23T01:10:02;24.1;;;17.0;;
23360;SDS011;11852;50.082;18.554;2022-10-23T01:18:10;21.6;;;15.0;;
23360;SDS011;11852;50.082;18.554;2022-10-23T01:20:06;24.1;;;16.8;;
23360;SDS011;11852;50.082;18.554;2022-10-23T01:27:26;25.1;;;16.1;;
23360;SDS011;11852;50.082;18.554;2022-10-23T01:28:31;22.2;;;15.4;;
23360;SDS011;11852;50.082;18.554;2022-10-23T01:29:36;21.6;;;16.1;;
23360;SDS011;11852;50.082;18.554;2022-10-23T01:30:39;23.7;;;16.2;;
23360;SDS011;11852;50.082;18.554;2022-10-23T01:31:48;23.7;;;16.3;;
23360;SDS011;11852;50.082;18.554;2022-10-23T01:32:51;25.1;;;16.4;;
23360;SDS011;11852;50.082;18.554;2022-10-23T01:33:58;23.9;;;16.5;;
23360;SDS011;11852;50.082;18.554;2022-10-23T01:36:11;22.6;;;15.4;;
23360;SDS011;11852;50.082;18.554;2022-10-23T01:37:18;22.7;;;15.7;;
23360;SDS011;11852;50.082;18.554;2022-10-23T01:38:22;25.4;;;16.4;;
23360;SDS011;11852;50.082;18.554;2022-10-23T01:39:24;20.3;;;14.2;;
23360;SDS011;11852;50.082;18.554;2022-10-23T01:41:39;23.2;;;15.9;;
23360;SDS011;11852;50.082;18.554;2022-10-23T01:42:43;24.1;;;16.8;;
23360;SDS011;11852;50.082;18.554;2022-10-23T01:43:53;21.6;;;14.3;;
23360;SDS011;11852;50.082;18.554;2022-10-23T01:44:58;22.4;;;15.1;;
23360;SDS011;11852;50.082;18.554;2022-10-23T01:46:02;23.3;;;16.4;;
23360;SDS011;11852;50.082;18.554;2022-10-23T01:47:04;21.7;;;15.3;;
23360;SDS011;11852;50.082;18.554;2022-10-23T01:48:09;20.9;;;14.3;;
23360;SDS011;11852;50.082;18.554;2022-10-23T01:49:13;22.4;;;15.0;;
23360;SDS011;11852;50.082;18.554;2022-10-23T01:50:17;20.3;;;14.0;;
23360;SDS011;11852;50.082;18.554;2022-10-23T01:51:23;21.6;;;15.1;;
23360;SDS011;11852;50.082;18.554;2022-10-23T01:52:25;24.6;;;16.2;;
23360;SDS011;11852;50.082;18.554;2022-10-23T01:53:30;20.8;;;14.3;;
23360;SDS011;11852;50.082;18.554;2022-10-23T01:54:35;24.9;;;16.3;;
23360;SDS011;11852;50.082;18.554;2022-10-23T01:55:38;25.1;;;16.2;;
23360;SDS011;11852;50.082;18.554;2022-10-23T01:56:42;22.8;;;15.3;;
23360;SDS011;11852;50.082;18.554;2022-10-23T01:57:46;22.9;;;15.1;;
23360;SDS011;11852;50.082;18.554;2022-10-23T01:58:51;23.1;;;16.0;;
23360;SDS011;11852;50.082;18.554;2022-10-23T02:01:05;22.9;;;16.4;;
23360;SDS011;11852;50.082;18.554;2022-10-23T02:02:09;22.1;;;15.4;;
23360;SDS011;11852;50.082;18.554;2022-10-23T02:03:14;20.8;;;14.5;;
23360;SDS011;11852;50.082;18.554;2022-10-23T02:04:19;22.0;;;14.9;;
23360;SDS011;11852;50.082;18.554;2022-10-23T02:05:23;19.5;;;14.0;;
23360;SDS011;11852;50.082;18.554;2022-10-23T02:06:26;23.0;;;15.1;;
23360;SDS011;11852;50.082;18.554;2022-10-23T02:07:30;23.8;;;15.3;;
23360;SDS011;11852;50.082;18.554;2022-10-23T02:08:34;22.7;;;15.6;;
23360;SDS011;11852;50.082;18.554;2022-10-23T02:09:39;22.8;;;15.5;;
23360;SDS011;11852;50.082;18.554;2022-10-23T02:11:54;20.7;;;13.7;;
23360;SDS011;11852;50.082;18.554;2022-10-23T02:13:02;23.0;;;15.7;;
23360;SDS011;11852;50.082;18.554;2022-10-23T02:14:10;22.4;;;14.6;;
23360;SDS011;11852;50.082;18.554;2022-10-23T02:15:18;20.4;;;14.0;;
23360;SDS011;11852;50.082;18.554;2022-10-23T02:18:45;21.4;;;14.5;;
23360;SDS011;11852;50.082;18.554;2022-10-23T02:19:53;26.6;;;17.6;;
23360;SDS011;11852;50.082;18.554;2022-10-23T02:20:54;21.7;;;14.8;;
23360;SDS011;11852;50.082;18.554;2022-10-23T02:22:04;23.4;;;15.7;;
23360;SDS011;11852;50.082;18.554;2022-10-23T02:24:23;24.3;;;16.6;;
23360;SDS011;11852;50.082;18.554;2022-10-23T02:25:27;22.6;;;14.8;;
23360;SDS011;11852;50.082;18.554;2022-10-23T02:26:35;23.2;;;14.6;;
23360;SDS011;11852;50.082;18.554;2022-10-23T02:27:46;22.1;;;15.2;;
23360;SDS011;11852;50.082;18.554;2022-10-23T02:28:48;23.5;;;16.3;;
23360;SDS011;11852;50.082;18.554;2022-10-23T02:29:52;23.3;;;14.8;;
23360;SDS011;11852;50.082;18.554;2022-10-23T02:30:56;24.4;;;15.7;;
23360;SDS011;11852;50.082;18.554;2022-10-23T02:31:59;21.2;;;14.5;;
23360;SDS011;11852;50.082;18.554;2022-10-23T02:33:03;23.5;;;15.5;;
23360;SDS011;11852;50.082;18.554;2022-10-23T02:34:08;22.1;;;14.6;;
23360;SDS011;11852;50.082;18.554;2022-10-23T02:35:12;23.3;;;15.8;;
23360;SDS011;11852;50.082;18.554;2022-10-23T02:36:17;23.5;;;15.9;;
23360;SDS011;11852;50.082;18.554;2022-10-23T02:37:21;22.6;;;14.9;;
23360;SDS011;11852;50.082;18.554;2022-10-23T02:39:35;25.0;;;16.0;;
23360;SDS011;11852;50.082;18.554;2022-10-23T02:40:39;24.4;;;16.4;;
23360;SDS011;11852;50.082;18.554;2022-10-23T02:42:27;25.2;;;16.3;;
23360;SDS011;11852;50.082;18.554;2022-10-23T02:46:24;20.0;;;13.2;;
23360;SDS011;11852;50.082;18.554;2022-10-23T02:48:40;20.0;;;14.3;;
23360;SDS011;11852;50.082;18.554;2022-10-23T02:51:05;21.4;;;14.8;;
23360;SDS011;11852;50.082;18.554;2022-10-23T03:00:27;23.5;;;16.2;;
23360;SDS011;11852;50.082;18.554;2022-10-23T03:01:34;24.1;;;16.9;;
23360;SDS011;11852;50.082;18.554;2022-10-23T03:02:43;22.0;;;14.6;;
23360;SDS011;11852;50.082;18.554;2022-10-23T03:03:54;21.6;;;14.0;;
23360;SDS011;11852;50.082;18.554;2022-10-23T03:04:57;21.8;;;13.8;;
23360;SDS011;11852;50.082;18.554;2022-10-23T03:06:01;22.0;;;15.3;;
23360;SDS011;11852;50.082;18.554;2022-10-23T03:07:08;22.3;;;14.8;;
23360;SDS011;11852;50.082;18.554;2022-10-23T03:08:10;22.1;;;15.3;;
23360;SDS011;11852;50.082;18.554;2022-10-23T03:09:13;27.4;;;17.6;;
23360;SDS011;11852;50.082;18.554;2022-10-23T03:10:17;23.2;;;15.5;;
23360;SDS011;11852;50.082;18.554;2022-10-23T03:11:21;21.6;;;14.9;;
23360;SDS011;11852;50.082;18.554;2022-10-23T03:12:25;24.5;;;15.5;;
23360;SDS011;11852;50.082;18.554;2022-10-23T03:13:30;25.0;;;17.1;;
23360;SDS011;11852;50.082;18.554;2022-10-23T03:14:34;23.1;;;15.6;;
23360;SDS011;11852;50.082;18.554;2022-10-23T03:15:39;22.5;;;15.4;;
23360;SDS011;11852;50.082;18.554;2022-10-23T03:16:43;23.6;;;15.7;;
23360;SDS011;11852;50.082;18.554;2022-10-23T03:17:47;22.9;;;14.5;;
23360;SDS011;11852;50.082;18.554;2022-10-23T03:18:51;22.7;;;15.2;;
23360;SDS011;11852;50.082;18.554;2022-10-23T03:19:55;25.1;;;14.9;;
23360;SDS011;11852;50.082;18.554;2022-10-23T03:20:59;22.5;;;14.9;;
23360;SDS011;11852;50.082;18.554;2022-10-23T03:22:03;22.7;;;15.8;;
23360;SDS011;11852;50.082;18.554;2022-10-23T03:23:09;22.2;;;14.8;;
23360;SDS011;11852;50.082;18.554;2022-10-23T03:24:12;25.3;;;15.6;;
23360;SDS011;11852;50.082;18.554;2022-10-23T03:25:16;22.8;;;15.8;;
23360;SDS011;11852;50.082;18.554;2022-10-23T03:26:20;25.5;;;17.2;;
23360;SDS011;11852;50.082;18.554;2022-10-23T03:27:24;22.8;;;15.6;;
23360;SDS011;11852;50.082;18.554;2022-10-23T03:28:28;23.5;;;15.0;;
23360;SDS011;11852;50.082;18.554;2022-10-23T03:29:33;23.7;;;15.3;;
23360;SDS011;11852;50.082;18.554;2022-10-23T03:30:37;24.8;;;16.0;;
23360;SDS011;11852;50.082;18.554;2022-10-23T03:31:41;26.2;;;16.9;;
23360;SDS011;11852;50.082;18.554;2022-10-23T03:32:45;24.8;;;16.3;;
23360;SDS011;11852;50.082;18.554;2022-10-23T03:33:49;25.3;;;17.9;;
23360;SDS011;11852;50.082;18.554;2022-10-23T03:34:54;22.9;;;15.1;;
23360;SDS011;11852;50.082;18.554;2022-10-23T03:35:58;23.9;;;15.5;;
23360;SDS011;11852;50.082;18.554;2022-10-23T03:37:02;25.5;;;17.1;;
23360;SDS011;11852;50.082;18.554;2022-10-23T03:38:06;24.1;;;16.0;;
23360;SDS011;11852;50.082;18.554;2022-10-23T03:39:11;26.1;;;16.8;;
23360;SDS011;11852;50.082;18.554;2022-10-23T03:40:15;24.7;;;17.2;;
23360;SDS011;11852;50.082;18.554;2022-10-23T03:41:19;25.3;;;16.9;;
23360;SDS011;11852;50.082;18.554;2022-10-23T03:42:23;25.6;;;16.9;;
23360;SDS011;11852;50.082;18.554;2022-10-23T03:43:27;24.3;;;16.1;;
23360;SDS011;11852;50.082;18.554;2022-10-23T03:44:32;26.1;;;16.5;;
23360;SDS011;11852;50.082;18.554;2022-10-23T03:45:36;24.7;;;16.5;;
23360;SDS011;11852;50.082;18.554;2022-10-23T03:46:40;25.3;;;16.9;;
23360;SDS011;11852;50.082;18.554;2022-10-23T03:47:45;26.8;;;17.0;;
23360;SDS011;11852;50.082;18.554;2022-10-23T03:48:49;23.6;;;15.2;;
23360;SDS011;11852;50.082;18.554;2022-10-23T03:49:53;25.4;;;16.8;;
23360;SDS011;11852;50.082;18.554;2022-10-23T03:50:57;24.8;;;16.7;;
23360;SDS011;11852;50.082;18.554;2022-10-23T03:52:02;25.0;;;16.7;;
23360;SDS011;11852;50.082;18.554;2022-10-23T03:53:06;23.6;;;16.1;;
23360;SDS011;11852;50.082;18.554;2022-10-23T03:54:10;24.4;;;16.3;;
23360;SDS011;11852;50.082;18.554;2022-10-23T03:55:14;26.7;;;17.0;;
23360;SDS011;11852;50.082;18.554;2022-10-23T03:56:18;24.1;;;16.3;;
23360;SDS011;11852;50.082;18.554;2022-10-23T03:57:22;25.6;;;16.5;;
23360;SDS011;11852;50.082;18.554;2022-10-23T03:58:27;28.2;;;18.7;;
23360;SDS011;11852;50.082;18.554;2022-10-23T03:59:31;28.9;;;18.9;;
23360;SDS011;11852;50.082;18.554;2022-10-23T04:00:36;26.3;;;17.8;;
23360;SDS011;11852;50.082;18.554;2022-10-23T04:01:40;25.8;;;17.4;;
23360;SDS011;11852;50.082;18.554;2022-10-23T04:02:44;27.4;;;18.2;;
23360;SDS011;11852;50.082;18.554;2022-10-23T04:03:48;27.4;;;17.3;;
23360;SDS011;11852;50.082;18.554;2022-10-23T04:04:53;26.2;;;17.9;;
23360;SDS011;11852;50.082;18.554;2022-10-23T04:05:58;27.9;;;17.9;;
23360;SDS011;11852;50.082;18.554;2022-10-23T04:07:02;25.5;;;17.5;;
23360;SDS011;11852;50.082;18.554;2022-10-23T04:08:06;24.3;;;16.5;;
23360;SDS011;11852;50.082;18.554;2022-10-23T04:09:10;25.6;;;16.7;;
23360;SDS011;11852;50.082;18.554;2022-10-23T04:10:14;25.9;;;16.5;;
23360;SDS011;11852;50.082;18.554;2022-10-23T04:11:18;27.0;;;17.2;;
23360;SDS011;11852;50.082;18.554;2022-10-23T04:12:22;24.2;;;16.6;;
23360;SDS011;11852;50.082;18.554;2022-10-23T04:13:26;23.9;;;16.5;;
23360;SDS011;11852;50.082;18.554;2022-10-23T04:14:31;27.0;;;16.5;;
23360;SDS011;11852;50.082;18.554;2022-10-23T04:15:35;28.3;;;17.7;;
23360;SDS011;11852;50.082;18.554;2022-10-23T04:16:39;27.9;;;18.4;;
23360;SDS011;11852;50.082;18.554;2022-10-23T04:17:43;23.8;;;16.2;;
23360;SDS011;11852;50.082;18.554;2022-10-23T04:18:47;26.9;;;17.0;;
23360;SDS011;11852;50.082;18.554;2022-10-23T04:19:51;27.1;;;17.7;;
23360;SDS011;11852;50.082;18.554;2022-10-23T04:20:56;26.0;;;16.8;;
23360;SDS011;11852;50.082;18.554;2022-10-23T04:22:00;28.9;;;17.0;;
23360;SDS011;11852;50.082;18.554;2022-10-23T04:23:04;25.9;;;17.7;;
23360;SDS011;11852;50.082;18.554;2022-10-23T04:24:08;26.0;;;17.1;;
23360;SDS011;11852;50.082;18.554;2022-10-23T04:25:13;27.8;;;17.9;;
23360;SDS011;11852;50.082;18.554;2022-10-23T04:26:16;25.8;;;16.8;;
23360;SDS011;11852;50.082;18.554;2022-10-23T04:27:21;27.5;;;18.7;;
23360;SDS011;11852;50.082;18.554;2022-10-23T04:28:25;28.5;;;17.7;;
23360;SDS011;11852;50.082;18.554;2022-10-23T04:29:29;27.5;;;17.5;;
23360;SDS011;11852;50.082;18.554;2022-10-23T04:30:33;26.2;;;16.8;;
23360;SDS011;11852;50.082;18.554;2022-10-23T04:31:37;27.2;;;16.7;;
23360;SDS011;11852;50.082;18.554;2022-10-23T04:32:41;28.9;;;18.8;;
23360;SDS011;11852;50.082;18.554;2022-10-23T04:33:45;30.5;;;19.3;;
23360;SDS011;11852;50.082;18.554;2022-10-23T04:34:49;25.9;;;17.0;;
23360;SDS011;11852;50.082;18.554;2022-10-23T04:35:54;25.0;;;16.7;;
23360;SDS011;11852;50.082;18.554;2022-10-23T04:36:58;25.4;;;17.4;;
23360;SDS011;11852;50.082;18.554;2022-10-23T04:38:03;28.5;;;17.9;;
23360;SDS011;11852;50.082;18.554;2022-10-23T04:39:08;26.9;;;17.4;;
23360;SDS011;11852;50.082;18.554;2022-10-23T04:40:11;27.4;;;16.9;;
23360;SDS011;11852;50.082;18.554;2022-10-23T04:41:16;29.5;;;19.6;;
23360;SDS011;11852;50.082;18.554;2022-10-23T04:42:20;27.6;;;18.0;;
23360;SDS011;11852;50.082;18.554;2022-10-23T04:43:24;25.8;;;16.3;;
23360;SDS011;11852;50.082;18.554;2022-10-23T04:44:28;26.5;;;16.5;;
23360;SDS011;11852;50.082;18.554;2022-10-23T04:45:33;25.6;;;16.0;;
23360;SDS011;11852;50.082;18.554;2022-10-23T04:46:37;25.9;;;16.5;;
23360;SDS011;11852;50.082;18.554;2022-10-23T04:47:42;28.0;;;16.7;;
23360;SDS011;11852;50.082;18.554;2022-10-23T04:48:46;25.2;;;15.9;;
23360;SDS011;11852;50.082;18.554;2022-10-23T04:49:50;26.6;;;17.4;;
23360;SDS011;11852;50.082;18.554;2022-10-23T04:50:57;25.5;;;16.3;;
23360;SDS011;11852;50.082;18.554;2022-10-23T04:51:58;26.4;;;16.9;;
23360;SDS011;11852;50.082;18.554;2022-10-23T04:53:02;29.1;;;18.1;;
23360;SDS011;11852;50.082;18.554;2022-10-23T04:54:07;26.4;;;17.2;;
23360;SDS011;11852;50.082;18.554;2022-10-23T04:55:11;29.0;;;18.8;;
23360;SDS011;11852;50.082;18.554;2022-10-23T04:56:15;26.5;;;17.6;;
23360;SDS011;11852;50.082;18.554;2022-10-23T04:57:19;24.6;;;16.2;;
23360;SDS011;11852;50.082;18.554;2022-10-23T04:58:24;25.0;;;16.3;;
23360;SDS011;11852;50.082;18.554;2022-10-23T04:59:28;26.1;;;17.4;;
23360;SDS011;11852;50.082;18.554;2022-10-23T05:00:32;27.3;;;17.7;;
23360;SDS011;11852;50.082;18.554;2022-10-23T05:01:36;24.9;;;16.2;;
23360;SDS011;11852;50.082;18.554;2022-10-23T05:02:41;24.7;;;15.6;;
23360;SDS011;11852;50.082;18.554;2022-10-23T05:03:45;25.7;;;16.2;;
23360;SDS011;11852;50.082;18.554;2022-10-23T05:04:49;24.9;;;16.2;;
23360;SDS011;11852;50.082;18.554;2022-10-23T05:05:54;29.9;;;18.7;;
23360;SDS011;11852;50.082;18.554;2022-10-23T05:06:57;29.5;;;18.3;;
23360;SDS011;11852;50.082;18.554;2022-10-23T05:08:01;26.4;;;16.2;;
23360;SDS011;11852;50.082;18.554;2022-10-23T05:09:05;27.7;;;17.2;;
23360;SDS011;11852;50.082;18.554;2022-10-23T05:10:09;28.1;;;17.2;;
23360;SDS011;11852;50.082;18.554;2022-10-23T05:11:13;25.0;;;15.9;;
23360;SDS011;11852;50.082;18.554;2022-10-23T05:12:17;28.1;;;18.4;;
23360;SDS011;11852;50.082;18.554;2022-10-23T05:13:22;26.5;;;17.1;;
23360;SDS011;11852;50.082;18.554;2022-10-23T05:14:26;24.9;;;15.5;;
23360;SDS011;11852;50.082;18.554;2022-10-23T05:15:30;27.3;;;16.6;;
23360;SDS011;11852;50.082;18.554;2022-10-23T05:16:35;26.8;;;17.0;;
23360;SDS011;11852;50.082;18.554;2022-10-23T05:17:44;24.9;;;16.4;;
23360;SDS011;11852;50.082;18.554;2022-10-23T05:18:47;25.2;;;16.8;;
23360;SDS011;11852;50.082;18.554;2022-10-23T05:19:55;25.2;;;16.4;;
23360;SDS011;11852;50.082;18.554;2022-10-23T05:22:08;25.8;;;17.0;;
23360;SDS011;11852;50.082;18.554;2022-10-23T05:23:13;28.7;;;18.3;;
23360;SDS011;11852;50.082;18.554;2022-10-23T05:24:17;27.3;;;17.5;;
23360;SDS011;11852;50.082;18.554;2022-10-23T05:25:21;26.3;;;16.8;;
23360;SDS011;11852;50.082;18.554;2022-10-23T05:26:25;25.7;;;16.5;;
23360;SDS011;11852;50.082;18.554;2022-10-23T05:27:29;28.0;;;19.0;;
23360;SDS011;11852;50.082;18.554;2022-10-23T05:28:33;31.9;;;21.0;;
23360;SDS011;11852;50.082;18.554;2022-10-23T05:29:37;27.7;;;16.8;;
23360;SDS011;11852;50.082;18.554;2022-10-23T05:30:41;29.2;;;17.8;;
23360;SDS011;11852;50.082;18.554;2022-10-23T05:31:46;44.0;;;28.1;;
23360;SDS011;11852;50.082;18.554;2022-10-23T05:32:50;47.2;;;29.3;;
23360;SDS011;11852;50.082;18.554;2022-10-23T05:33:54;46.6;;;30.3;;
23360;SDS011;11852;50.082;18.554;2022-10-23T05:34:59;37.5;;;23.6;;
23360;SDS011;11852;50.082;18.554;2022-10-23T05:36:03;33.5;;;21.6;;
23360;SDS011;11852;50.082;18.554;2022-10-23T05:37:08;46.8;;;28.9;;
23360;SDS011;11852;50.082;18.554;2022-10-23T05:38:12;37.7;;;23.8;;
23360;SDS011;11852;50.082;18.554;2022-10-23T05:39:16;38.7;;;24.4;;
23360;SDS011;11852;50.082;18.554;2022-10-23T05:40:20;35.7;;;22.4;;
23360;SDS011;11852;50.082;18.554;2022-10-23T05:41:24;25.9;;;16.4;;
23360;SDS011;11852;50.082;18.554;2022-10-23T05:42:28;27.7;;;17.0;;
23360;SDS011;11852;50.082;18.554;2022-10-23T05:43:32;27.0;;;16.8;;
23360;SDS011;11852;50.082;18.554;2022-10-23T05:44:37;29.5;;;19.9;;
23360;SDS011;11852;50.082;18.554;2022-10-23T05:45:41;24.8;;;16.0;;
23360;SDS011;11852;50.082;18.554;2022-10-23T05:46:46;28.4;;;18.3;;
23360;SDS011;11852;50.082;18.554;2022-10-23T05:47:50;34.1;;;19.8;;
23360;SDS011;11852;50.082;18.554;2022-10-23T05:48:54;36.6;;;22.5;;
23360;SDS011;11852;50.082;18.554;2022-10-23T05:49:58;31.2;;;21.0;;
23360;SDS011;11852;50.082;18.554;2022-10-23T05:51:06;28.2;;;18.6;;
23360;SDS011;11852;50.082;18.554;2022-10-23T05:52:10;28.5;;;19.1;;
23360;SDS011;11852;50.082;18.554;2022-10-23T05:53:14;30.8;;;19.8;;
23360;SDS011;11852;50.082;18.554;2022-10-23T05:54:18;27.7;;;17.6;;
23360;SDS011;11852;50.082;18.554;2022-10-23T05:55:22;23.8;;;16.5;;
23360;SDS011;11852;50.082;18.554;2022-10-23T05:56:26;21.5;;;13.8;;
23360;SDS011;11852;50.082;18.554;2022-10-23T05:57:31;23.7;;;15.1;;
23360;SDS011;11852;50.082;18.554;2022-10-23T05:58:35;24.6;;;15.3;;
23360;SDS011;11852;50.082;18.554;2022-10-23T05:59:39;24.4;;;16.0;;
23360;SDS011;11852;50.082;18.554;2022-10-23T06:00:43;21.7;;;15.0;;
23360;SDS011;11852;50.082;18.554;2022-10-23T06:01:48;19.6;;;13.1;;
23360;SDS011;11852;50.082;18.554;2022-10-23T06:02:52;20.8;;;13.0;;
23360;SDS011;11852;50.082;18.554;2022-10-23T06:03:57;19.5;;;13.2;;
23360;SDS011;11852;50.082;18.554;2022-10-23T06:05:00;20.5;;;13.8;;
23360;SDS011;11852;50.082;18.554;2022-10-23T06:06:04;20.2;;;13.4;;
23360;SDS011;11852;50.082;18.554;2022-10-23T06:07:08;20.2;;;13.4;;
23360;SDS011;11852;50.082;18.554;2022-10-23T06:08:13;19.8;;;13.4;;
23360;SDS011;11852;50.082;18.554;2022-10-23T06:09:17;19.0;;;12.6;;
23360;SDS011;11852;50.082;18.554;2022-10-23T06:10:21;17.6;;;11.9;;
23360;SDS011;11852;50.082;18.554;2022-10-23T06:11:26;17.7;;;12.0;;
23360;SDS011;11852;50.082;18.554;2022-10-23T06:12:30;20.6;;;13.8;;
23360;SDS011;11852;50.082;18.554;2022-10-23T06:13:34;19.4;;;13.2;;
23360;SDS011;11852;50.082;18.554;2022-10-23T06:14:38;19.8;;;13.9;;
23360;SDS011;11852;50.082;18.554;2022-10-23T06:15:42;17.2;;;11.7;;
23360;SDS011;11852;50.082;18.554;2022-10-23T06:16:46;18.7;;;12.6;;
23360;SDS011;11852;50.082;18.554;2022-10-23T06:17:51;18.3;;;12.7;;
23360;SDS011;11852;50.082;18.554;2022-10-23T06:18:55;17.3;;;11.8;;
23360;SDS011;11852;50.082;18.554;2022-10-23T06:19:59;19.0;;;12.6;;
23360;SDS011;11852;50.082;18.554;2022-10-23T06:21:03;19.7;;;13.5;;
23360;SDS011;11852;50.082;18.554;2022-10-23T06:22:07;19.0;;;12.3;;
23360;SDS011;11852;50.082;18.554;2022-10-23T06:23:11;18.6;;;12.6;;
23360;SDS011;11852;50.082;18.554;2022-10-23T06:24:15;17.1;;;11.8;;
23360;SDS011;11852;50.082;18.554;2022-10-23T06:25:20;18.5;;;12.3;;
23360;SDS011;11852;50.082;18.554;2022-10-23T06:26:24;18.9;;;12.2;;
23360;SDS011;11852;50.082;18.554;2022-10-23T06:27:28;18.7;;;12.9;;
23360;SDS011;11852;50.082;18.554;2022-10-23T06:28:33;18.3;;;12.6;;
23360;SDS011;11852;50.082;18.554;2022-10-23T06:29:37;20.8;;;13.4;;
23360;SDS011;11852;50.082;18.554;2022-10-23T06:30:41;18.8;;;13.1;;
23360;SDS011;11852;50.082;18.554;2022-10-23T06:31:45;21.3;;;13.1;;
23360;SDS011;11852;50.082;18.554;2022-10-23T06:32:50;20.8;;;14.3;;
23360;SDS011;11852;50.082;18.554;2022-10-23T06:33:54;20.7;;;14.2;;
23360;SDS011;11852;50.082;18.554;2022-10-23T06:34:58;21.8;;;13.9;;
23360;SDS011;11852;50.082;18.554;2022-10-23T06:36:02;20.7;;;13.3;;
23360;SDS011;11852;50.082;18.554;2022-10-23T06:37:07;21.9;;;13.9;;
23360;SDS011;11852;50.082;18.554;2022-10-23T06:38:11;25.3;;;15.2;;
23360;SDS011;11852;50.082;18.554;2022-10-23T06:39:15;19.4;;;12.6;;
23360;SDS011;11852;50.082;18.554;2022-10-23T06:40:19;21.4;;;13.7;;
23360;SDS011;11852;50.082;18.554;2022-10-23T06:41:23;20.0;;;13.2;;
23360;SDS011;11852;50.082;18.554;2022-10-23T06:42:28;19.4;;;11.9;;
23360;SDS011;11852;50.082;18.554;2022-10-23T06:43:32;17.7;;;12.1;;
23360;SDS011;11852;50.082;18.554;2022-10-23T06:44:37;18.3;;;12.3;;
23360;SDS011;11852;50.082;18.554;2022-10-23T06:45:41;17.6;;;11.6;;
23360;SDS011;11852;50.082;18.554;2022-10-23T06:46:48;17.5;;;11.5;;
23360;SDS011;11852;50.082;18.554;2022-10-23T06:47:52;17.4;;;11.7;;
23360;SDS011;11852;50.082;18.554;2022-10-23T06:48:56;18.7;;;11.9;;
23360;SDS011;11852;50.082;18.554;2022-10-23T06:50:00;16.1;;;11.2;;
23360;SDS011;11852;50.082;18.554;2022-10-23T06:51:06;17.5;;;11.7;;
23360;SDS011;11852;50.082;18.554;2022-10-23T06:52:09;15.8;;;11.0;;
23360;SDS011;11852;50.082;18.554;2022-10-23T06:53:13;15.0;;;10.6;;
23360;SDS011;11852;50.082;18.554;2022-10-23T06:54:17;16.0;;;11.0;;
23360;SDS011;11852;50.082;18.554;2022-10-23T06:55:22;16.6;;;11.4;;
23360;SDS011;11852;50.082;18.554;2022-10-23T06:56:26;14.6;;;9.9;;
23360;SDS011;11852;50.082;18.554;2022-10-23T06:57:30;15.5;;;10.1;;
23360;SDS011;11852;50.082;18.554;2022-10-23T06:58:36;17.2;;;11.2;;
23360;SDS011;11852;50.082;18.554;2022-10-23T06:59:39;16.0;;;10.6;;
23360;SDS011;11852;50.082;18.554;2022-10-23T07:00:43;16.1;;;10.8;;
23360;SDS011;11852;50.082;18.554;2022-10-23T07:01:48;16.5;;;10.7;;
23360;SDS011;11852;50.082;18.554;2022-10-23T07:02:52;17.4;;;10.9;;
23360;SDS011;11852;50.082;18.554;2022-10-23T07:03:56;16.7;;;10.9;;
23360;SDS011;11852;50.082;18.554;2022-10-23T07:05:00;15.4;;;10.8;;
23360;SDS011;11852;50.082;18.554;2022-10-23T07:06:05;16.5;;;10.9;;
23360;SDS011;11852;50.082;18.554;2022-10-23T07:07:09;14.4;;;9.9;;